createdAt,value
2023-06-22T00:14:25.608Z,18.62
2023-06-22T00:29:26.058Z,18.44
2023-06-22T00:44:25.293Z,18.24
2023-06-22T00:59:25.097Z,18.12
2023-06-22T01:14:24.935Z,18.09
2023-06-22T01:29:24.785Z,18.04
2023-06-22T01:44:24.617Z,17.94
2023-06-22T01:59:24.458Z,17.89
2023-06-22T02:14:24.300Z,17.92
2023-06-22T02:29:24.132Z,17.94
2023-06-22T02:44:23.983Z,17.97
2023-06-22T02:59:23.803Z,18.13
2023-06-22T03:14:23.654Z,18.21
2023-06-22T03:29:23.480Z,18.22
2023-06-22T03:44:23.413Z,18.37
2023-06-22T03:59:23.196Z,18.47
2023-06-22T04:14:23.011Z,18.59
2023-06-22T04:29:22.822Z,18.87
2023-06-22T04:44:22.678Z,19.11
2023-06-22T04:59:22.500Z,19.66
2023-06-22T05:14:22.368Z,20.05
2023-06-22T05:29:22.176Z,20.43
2023-06-22T05:44:22.039Z,20.66
2023-06-22T05:59:21.849Z,21.54
2023-06-22T06:14:21.698Z,21.76
2023-06-22T06:29:21.524Z,23.38
2023-06-22T06:44:21.371Z,24.44
2023-06-22T06:59:21.216Z,23.57
2023-06-22T07:14:21.050Z,25.16
2023-06-22T07:29:20.871Z,26.12
2023-06-22T07:44:20.713Z,26.74
2023-06-22T07:59:20.545Z,26.44
2023-06-22T08:14:20.403Z,25.20
2023-06-22T08:29:20.217Z,24.92
2023-06-22T08:44:20.050Z,24.85
2023-06-22T08:59:19.897Z,25.37
2023-06-22T09:14:19.745Z,26.54
2023-06-22T09:29:19.575Z,26.37
2023-06-22T09:44:19.410Z,26.25
2023-06-22T09:59:19.385Z,26.55
2023-06-22T10:14:19.099Z,26.72
2023-06-22T10:29:18.953Z,27.48
2023-06-22T10:44:18.781Z,28.19
2023-06-22T10:59:18.663Z,28.21
2023-06-22T11:14:18.449Z,28.46
2023-06-22T11:29:31.904Z,29.04
2023-06-22T11:44:19.436Z,29.57
2023-06-22T11:59:18.009Z,29.59
2023-06-22T12:14:17.817Z,29.01
2023-06-22T12:29:17.670Z,29.38
2023-06-22T12:44:17.617Z,30.03
2023-06-22T12:59:17.373Z,29.94
2023-06-22T13:14:17.336Z,29.75
2023-06-22T13:29:17.131Z,29.43
2023-06-22T13:44:16.851Z,30.05
2023-06-22T13:59:16.705Z,30.21
2023-06-22T14:14:16.552Z,29.86
2023-06-22T14:29:16.467Z,29.72
2023-06-22T14:44:17.137Z,30.09
2023-06-22T14:59:16.104Z,29.97
2023-06-22T15:14:15.904Z,29.81
2023-06-22T15:29:15.846Z,29.45
2023-06-22T15:44:15.584Z,29.08
2023-06-22T15:59:15.434Z,29.03
2023-06-22T16:14:15.294Z,29.03
2023-06-22T16:29:15.136Z,28.60
2023-06-22T16:44:14.941Z,28.41
2023-06-22T16:59:14.801Z,27.71
2023-06-22T17:14:15.676Z,27.46
2023-06-22T17:29:14.598Z,27.19
2023-06-22T17:44:14.307Z,26.84
2023-06-22T17:59:14.130Z,26.61
2023-06-22T18:14:14.102Z,26.28
2023-06-22T18:29:13.986Z,25.99
2023-06-22T18:44:13.652Z,25.65
2023-06-22T18:59:13.602Z,25.47
2023-06-22T19:14:13.335Z,25.24
2023-06-22T19:29:13.720Z,25.00
2023-06-22T19:44:13.099Z,24.88
2023-06-22T19:59:12.901Z,24.68
2023-06-22T20:14:12.684Z,24.49
2023-06-22T20:29:12.533Z,24.50
2023-06-22T20:44:12.401Z,23.39
2023-06-22T20:59:13.330Z,20.61
2023-06-22T21:14:19.332Z,19.87
2023-06-22T21:29:12.646Z,19.50
2023-06-22T21:44:11.787Z,19.18
2023-06-22T21:59:11.554Z,19.84
2023-06-22T22:14:11.390Z,19.23
2023-06-22T22:29:11.228Z,18.95
2023-06-22T22:44:11.057Z,19.01
2023-06-22T22:59:10.914Z,18.77
2023-06-22T23:14:10.738Z,18.37
2023-06-22T23:29:10.566Z,18.24
2023-06-22T23:44:10.403Z,17.92
2023-06-22T23:59:10.251Z,17.73
